sensor_id;sensor_type;location;lat;lon;timestamp;temperature;humidity
21551;DHT22;10936;49.836;7.078;2022-12-17T00:00:26;16.20;79.40
21551;DHT22;10936;49.836;7.078;2022-12-17T00:03:11;16.30;79.20
21551;DHT22;10936;49.836;7.078;2022-12-17T00:05:55;16.40;79.20
21551;DHT22;10936;49.836;7.078;2022-12-17T00:08:39;16.40;79.10
21551;DHT22;10936;49.836;7.078;2022-12-17T00:11:23;16.60;79.10
21551;DHT22;10936;49.836;7.078;2022-12-17T00:14:07;16.60;79.10
21551;DHT22;10936;49.836;7.078;2022-12-17T00:16:51;16.60;79.00
21551;DHT22;10936;49.836;7.078;2022-12-17T00:19:35;16.70;79.00
21551;DHT22;10936;49.836;7.078;2022-12-17T00:22:19;16.80;79.00
21551;DHT22;10936;49.836;7.078;2022-12-17T00:25:04;16.80;79.00
21551;DHT22;10936;49.836;7.078;2022-12-17T00:27:48;16.80;78.90
21551;DHT22;10936;49.836;7.078;2022-12-17T00:30:32;16.90;78.90
21551;DHT22;10936;49.836;7.078;2022-12-17T00:33:16;16.90;78.90
21551;DHT22;10936;49.836;7.078;2022-12-17T00:36:01;16.90;78.90
21551;DHT22;10936;49.836;7.078;2022-12-17T00:38:45;17.00;78.90
21551;DHT22;10936;49.836;7.078;2022-12-17T00:41:29;17.00;78.90
21551;DHT22;10936;49.836;7.078;2022-12-17T00:44:13;17.00;78.90
21551;DHT22;10936;49.836;7.078;2022-12-17T00:46:57;17.00;78.80
21551;DHT22;10936;49.836;7.078;2022-12-17T00:49:41;17.10;78.90
21551;DHT22;10936;49.836;7.078;2022-12-17T00:52:25;17.10;78.90
21551;DHT22;10936;49.836;7.078;2022-12-17T00:55:09;17.10;79.00
21551;DHT22;10936;49.836;7.078;2022-12-17T00:57:54;17.10;78.90
21551;DHT22;10936;49.836;7.078;2022-12-17T06:01:04;16.90;79.10
21551;DHT22;10936;49.836;7.078;2022-12-17T06:03:50;16.90;79.10
21551;DHT22;10936;49.836;7.078;2022-12-17T06:06:34;17.00;79.20
21551;DHT22;10936;49.836;7.078;2022-12-17T06:09:19;17.00;79.20
21551;DHT22;10936;49.836;7.078;2022-12-17T06:12:03;16.90;79.10
21551;DHT22;10936;49.836;7.078;2022-12-17T06:14:46;16.90;79.20
21551;DHT22;10936;49.836;7.078;2022-12-17T06:17:30;16.90;79.30
21551;DHT22;10936;49.836;7.078;2022-12-17T06:20:15;16.90;79.30
21551;DHT22;10936;49.836;7.078;2022-12-17T06:23:07;16.90;79.30
21551;DHT22;10936;49.836;7.078;2022-12-17T06:25:52;16.90;79.40
21551;DHT22;10936;49.836;7.078;2022-12-17T06:28:36;16.90;79.40
21551;DHT22;10936;49.836;7.078;2022-12-17T06:31:20;17.00;80.20
21551;DHT22;10936;49.836;7.078;2022-12-17T06:34:04;16.90;79.40
21551;DHT22;10936;49.836;7.078;2022-12-17T06:36:48;16.90;79.50
21551;DHT22;10936;49.836;7.078;2022-12-17T06:39:32;16.90;79.50
21551;DHT22;10936;49.836;7.078;2022-12-17T06:42:17;16.90;79.60
21551;DHT22;10936;49.836;7.078;2022-12-17T06:45:01;17.00;79.60
21551;DHT22;10936;49.836;7.078;2022-12-17T06:47:45;16.90;79.60
21551;DHT22;10936;49.836;7.078;2022-12-17T06:50:29;16.90;79.70
21551;DHT22;10936;49.836;7.078;2022-12-17T06:53:13;16.90;79.70
21551;DHT22;10936;49.836;7.078;2022-12-17T06:55:58;16.90;79.70
21551;DHT22;10936;49.836;7.078;2022-12-17T06:58:43;16.90;79.80
21551;DHT22;10936;49.836;7.078;2022-12-17T07:01:41;16.90;79.80
21551;DHT22;10936;49.836;7.078;2022-12-17T07:04:28;16.90;79.90
21551;DHT22;10936;49.836;7.078;2022-12-17T07:07:20;16.90;79.90
21551;DHT22;10936;49.836;7.078;2022-12-17T07:10:04;17.00;80.00
21551;DHT22;10936;49.836;7.078;2022-12-17T07:12:48;16.90;80.00
21551;DHT22;10936;49.836;7.078;2022-12-17T07:15:32;17.00;80.10
21551;DHT22;10936;49.836;7.078;2022-12-17T07:18:16;16.90;80.00
21551;DHT22;10936;49.836;7.078;2022-12-17T07:21:00;16.90;80.10
21551;DHT22;10936;49.836;7.078;2022-12-17T07:23:45;16.90;80.10
21551;DHT22;10936;49.836;7.078;2022-12-17T07:26:29;17.00;80.20
21551;DHT22;10936;49.836;7.078;2022-12-17T07:29:14;17.00;80.20
21551;DHT22;10936;49.836;7.078;2022-12-17T07:31:58;17.00;80.30
21551;DHT22;10936;49.836;7.078;2022-12-17T07:34:42;17.00;80.50
21551;DHT22;10936;49.836;7.078;2022-12-17T07:37:26;17.00;80.50
21551;DHT22;10936;49.836;7.078;2022-12-17T07:40:10;17.00;80.50
21551;DHT22;10936;49.836;7.078;2022-12-17T07:42:54;17.00;80.60
21551;DHT22;10936;49.836;7.078;2022-12-17T07:45:38;17.00;80.50
21551;DHT22;10936;49.836;7.078;2022-12-17T07:48:22;17.00;80.60
21551;DHT22;10936;49.836;7.078;2022-12-17T07:51:06;16.90;80.50
21551;DHT22;10936;49.836;7.078;2022-12-17T07:53:50;16.90;80.50
21551;DHT22;10936;49.836;7.078;2022-12-17T07:56:34;17.00;80.50
21551;DHT22;10936;49.836;7.078;2022-12-17T07:59:18;17.00;80.20
21551;DHT22;10936;49.836;7.078;2022-12-17T08:02:02;17.00;80.00
21551;DHT22;10936;49.836;7.078;2022-12-17T08:04:46;17.00;79.70
21551;DHT22;10936;49.836;7.078;2022-12-17T08:07:30;17.00;79.70
21551;DHT22;10936;49.836;7.078;2022-12-17T08:10:14;17.10;79.50
21551;DHT22;10936;49.836;7.078;2022-12-17T08:13:01;17.00;79.40
21551;DHT22;10936;49.836;7.078;2022-12-17T08:15:46;17.00;79.20
21551;DHT22;10936;49.836;7.078;2022-12-17T08:18:30;17.10;79.10
21551;DHT22;10936;49.836;7.078;2022-12-17T08:21:14;17.10;79.90
21551;DHT22;10936;49.836;7.078;2022-12-17T08:23:59;17.10;79.00
21551;DHT22;10936;49.836;7.078;2022-12-17T08:26:43;17.10;78.80
21551;DHT22;10936;49.836;7.078;2022-12-17T08:29:27;17.10;78.80
21551;DHT22;10936;49.836;7.078;2022-12-17T08:32:11;17.10;78.80
21551;DHT22;10936;49.836;7.078;2022-12-17T08:34:55;17.20;78.80
21551;DHT22;10936;49.836;7.078;2022-12-17T08:37:39;17.20;78.80
21551;DHT22;10936;49.836;7.078;2022-12-17T08:40:23;17.20;78.80
21551;DHT22;10936;49.836;7.078;2022-12-17T08:43:07;17.20;78.70
21551;DHT22;10936;49.836;7.078;2022-12-17T08:45:52;17.20;78.70
21551;DHT22;10936;49.836;7.078;2022-12-17T08:48:37;17.30;78.70
21551;DHT22;10936;49.836;7.078;2022-12-17T08:51:22;17.30;79.20
21551;DHT22;10936;49.836;7.078;2022-12-17T08:54:07;17.30;78.80
21551;DHT22;10936;49.836;7.078;2022-12-17T08:56:50;17.30;78.80
21551;DHT22;10936;49.836;7.078;2022-12-17T08:59:34;17.30;78.80
21551;DHT22;10936;49.836;7.078;2022-12-17T09:02:19;17.30;78.90
21551;DHT22;10936;49.836;7.078;2022-12-17T09:05:03;17.40;79.00
21551;DHT22;10936;49.836;7.078;2022-12-17T09:07:47;17.40;79.00
21551;DHT22;10936;49.836;7.078;2022-12-17T09:10:31;17.40;79.10
21551;DHT22;10936;49.836;7.078;2022-12-17T09:13:16;17.40;79.10
21551;DHT22;10936;49.836;7.078;2022-12-17T09:16:00;17.40;79.10
21551;DHT22;10936;49.836;7.078;2022-12-17T09:18:44;17.40;79.10
21551;DHT22;10936;49.836;7.078;2022-12-17T09:21:29;17.50;79.30
21551;DHT22;10936;49.836;7.078;2022-12-17T09:24:14;17.50;79.30
21551;DHT22;10936;49.836;7.078;2022-12-17T09:26:59;17.50;79.30
21551;DHT22;10936;49.836;7.078;2022-12-17T09:29:43;17.60;79.40
21551;DHT22;10936;49.836;7.078;2022-12-17T09:32:27;17.60;79.40
21551;DHT22;10936;49.836;7.078;2022-12-17T09:35:13;17.60;79.40
21551;DHT22;10936;49.836;7.078;2022-12-17T09:37:57;17.60;79.40
21551;DHT22;10936;49.836;7.078;2022-12-17T09:40:45;17.60;79.40
21551;DHT22;10936;49.836;7.078;2022-12-17T09:43:55;17.60;79.50
21551;DHT22;10936;49.836;7.078;2022-12-17T09:50:04;17.60;79.50
21551;DHT22;10936;49.836;7.078;2022-12-17T09:52:52;17.70;79.90
21551;DHT22;10936;49.836;7.078;2022-12-17T09:55:45;17.70;79.90
21551;DHT22;10936;49.836;7.078;2022-12-17T09:58:30;17.70;80.00
21551;DHT22;10936;49.836;7.078;2022-12-17T10:01:33;17.80;80.20
21551;DHT22;10936;49.836;7.078;2022-12-17T10:07:19;17.80;80.50
21551;DHT22;10936;49.836;7.078;2022-12-17T10:13:01;17.80;80.50
21551;DHT22;10936;49.836;7.078;2022-12-17T10:15:45;17.80;80.30
21551;DHT22;10936;49.836;7.078;2022-12-17T10:18:30;17.80;80.50
21551;DHT22;10936;49.836;7.078;2022-12-17T10:21:17;17.90;80.70
21551;DHT22;10936;49.836;7.078;2022-12-17T10:24:09;17.90;80.90
21551;DHT22;10936;49.836;7.078;2022-12-17T10:27:18;17.90;81.10
21551;DHT22;10936;49.836;7.078;2022-12-17T10:30:03;17.90;81.30
21551;DHT22;10936;49.836;7.078;2022-12-17T10:32:55;18.00;81.30
21551;DHT22;10936;49.836;7.078;2022-12-17T10:35:59;18.00;81.50
21551;DHT22;10936;49.836;7.078;2022-12-17T10:38:43;18.00;81.60
21551;DHT22;10936;49.836;7.078;2022-12-17T10:41:41;18.10;81.70
21551;DHT22;10936;49.836;7.078;2022-12-17T10:44:32;18.10;81.70
21551;DHT22;10936;49.836;7.078;2022-12-17T10:47:19;18.10;81.80
21551;DHT22;10936;49.836;7.078;2022-12-17T10:50:16;18.10;81.90
21551;DHT22;10936;49.836;7.078;2022-12-17T10:53:01;18.10;81.90
21551;DHT22;10936;49.836;7.078;2022-12-17T10:55:55;18.20;81.90
21551;DHT22;10936;49.836;7.078;2022-12-17T10:58:58;18.20;82.00
21551;DHT22;10936;49.836;7.078;2022-12-17T11:01:42;18.20;81.90
21551;DHT22;10936;49.836;7.078;2022-12-17T11:04:30;18.20;81.90
21551;DHT22;10936;49.836;7.078;2022-12-17T11:07:26;18.20;82.00
21551;DHT22;10936;49.836;7.078;2022-12-17T11:10:24;18.20;82.10
21551;DHT22;10936;49.836;7.078;2022-12-17T11:16:21;18.30;81.90
21551;DHT22;10936;49.836;7.078;2022-12-17T11:21:57;18.30;81.90
21551;DHT22;10936;49.836;7.078;2022-12-17T11:27:34;18.30;81.90
21551;DHT22;10936;49.836;7.078;2022-12-17T11:30:21;18.30;81.90
21551;DHT22;10936;49.836;7.078;2022-12-17T11:33:56;18.30;81.90
21551;DHT22;10936;49.836;7.078;2022-12-17T11:36:46;18.30;81.90
21551;DHT22;10936;49.836;7.078;2022-12-17T11:40:00;18.30;81.90
21551;DHT22;10936;49.836;7.078;2022-12-17T11:43:15;18.30;81.90
21551;DHT22;10936;49.836;7.078;2022-12-17T11:46:26;18.30;82.70
21551;DHT22;10936;49.836;7.078;2022-12-17T11:49:46;18.30;81.80
21551;DHT22;10936;49.836;7.078;2022-12-17T11:53:01;18.30;81.80
21551;DHT22;10936;49.836;7.078;2022-12-17T11:56:29;18.30;81.80
21551;DHT22;10936;49.836;7.078;2022-12-17T11:59:34;18.40;81.80
21551;DHT22;10936;49.836;7.078;2022-12-17T12:05:58;18.40;81.90
21551;DHT22;10936;49.836;7.078;2022-12-17T12:18:14;18.40;82.10
21551;DHT22;10936;49.836;7.078;2022-12-17T12:21:21;18.30;82.20
21551;DHT22;10936;49.836;7.078;2022-12-17T12:27:04;18.40;82.50
21551;DHT22;10936;49.836;7.078;2022-12-17T12:30:09;18.40;82.70
21551;DHT22;10936;49.836;7.078;2022-12-17T12:33:00;18.40;82.80
21551;DHT22;10936;49.836;7.078;2022-12-17T12:35:46;18.40;83.00
21551;DHT22;10936;49.836;7.078;2022-12-17T12:38:35;18.40;83.10
21551;DHT22;10936;49.836;7.078;2022-12-17T12:41:28;18.40;83.30
21551;DHT22;10936;49.836;7.078;2022-12-17T12:44:31;18.40;83.40
21551;DHT22;10936;49.836;7.078;2022-12-17T12:47:26;18.40;83.50
21551;DHT22;10936;49.836;7.078;2022-12-17T12:50:21;18.40;83.70
21551;DHT22;10936;49.836;7.078;2022-12-17T12:53:10;18.40;83.90
21551;DHT22;10936;49.836;7.078;2022-12-17T12:55:55;18.40;84.00
21551;DHT22;10936;49.836;7.078;2022-12-17T12:58:39;18.40;84.20
21551;DHT22;10936;49.836;7.078;2022-12-17T13:01:32;18.40;84.30
21551;DHT22;10936;49.836;7.078;2022-12-17T13:04:32;18.50;84.50
21551;DHT22;10936;49.836;7.078;2022-12-17T13:07:25;18.40;84.70
21551;DHT22;10936;49.836;7.078;2022-12-17T13:09:54;18.40;84.90
21551;DHT22;10936;49.836;7.078;2022-12-17T13:12:45;18.50;85.00
21551;DHT22;10936;49.836;7.078;2022-12-17T13:15:35;18.50;85.20
21551;DHT22;10936;49.836;7.078;2022-12-17T13:21:23;18.50;85.50
21551;DHT22;10936;49.836;7.078;2022-12-17T13:23:49;18.50;85.50
21551;DHT22;10936;49.836;7.078;2022-12-17T13:26:19;18.50;85.50
21551;DHT22;10936;49.836;7.078;2022-12-17T13:28:58;18.50;85.50
21551;DHT22;10936;49.836;7.078;2022-12-17T13:31:29;18.50;85.50
21551;DHT22;10936;49.836;7.078;2022-12-17T13:41:59;18.50;85.30
21551;DHT22;10936;49.836;7.078;2022-12-17T13:44:42;18.50;85.30
21551;DHT22;10936;49.836;7.078;2022-12-17T13:47:28;18.60;85.30
21551;DHT22;10936;49.836;7.078;2022-12-17T13:49:57;18.60;85.30
21551;DHT22;10936;49.836;7.078;2022-12-17T13:52:27;18.50;85.20
21551;DHT22;10936;49.836;7.078;2022-12-17T13:54:53;18.60;85.20
21551;DHT22;10936;49.836;7.078;2022-12-17T13:57:29;18.60;85.10
21551;DHT22;10936;49.836;7.078;2022-12-17T13:59:57;18.60;85.00
21551;DHT22;10936;49.836;7.078;2022-12-17T14:02:24;18.60;85.00
21551;DHT22;10936;49.836;7.078;2022-12-17T14:04:52;18.60;85.00
21551;DHT22;10936;49.836;7.078;2022-12-17T14:07:18;18.60;84.90
21551;DHT22;10936;49.836;7.078;2022-12-17T14:09:45;18.60;84.90
21551;DHT22;10936;49.836;7.078;2022-12-17T14:12:11;18.60;84.80
21551;DHT22;10936;49.836;7.078;2022-12-17T14:14:58;18.60;84.80
21551;DHT22;10936;49.836;7.078;2022-12-17T14:17:36;18.60;84.80
21551;DHT22;10936;49.836;7.078;2022-12-17T14:20:22;18.50;84.80
21551;DHT22;10936;49.836;7.078;2022-12-17T14:22:53;18.50;84.70
21551;DHT22;10936;49.836;7.078;2022-12-17T14:25:22;18.50;84.70
21551;DHT22;10936;49.836;7.078;2022-12-17T14:28:00;18.50;84.80
21551;DHT22;10936;49.836;7.078;2022-12-17T14:30:40;18.50;84.90
21551;DHT22;10936;49.836;7.078;2022-12-17T14:33:28;18.50;84.90
21551;DHT22;10936;49.836;7.078;2022-12-17T14:35:56;18.50;84.90
21551;DHT22;10936;49.836;7.078;2022-12-17T14:38:23;18.40;84.90
21551;DHT22;10936;49.836;7.078;2022-12-17T14:40:49;18.40;84.80
21551;DHT22;10936;49.836;7.078;2022-12-17T14:43:15;18.40;84.90
21551;DHT22;10936;49.836;7.078;2022-12-17T14:45:50;18.40;84.80
21551;DHT22;10936;49.836;7.078;2022-12-17T14:48:35;18.40;84.90
21551;DHT22;10936;49.836;7.078;2022-12-17T14:51:29;18.40;84.90
21551;DHT22;10936;49.836;7.078;2022-12-17T14:54:17;18.40;84.90
21551;DHT22;10936;49.836;7.078;2022-12-17T14:56:45;18.30;84.80
21551;DHT22;10936;49.836;7.078;2022-12-17T14:59:34;18.30;84.90
21551;DHT22;10936;49.836;7.078;2022-12-17T15:02:04;18.30;84.80
21551;DHT22;10936;49.836;7.078;2022-12-17T15:04:38;18.30;84.80
21551;DHT22;10936;49.836;7.078;2022-12-17T15:07:05;18.30;84.90
21551;DHT22;10936;49.836;7.078;2022-12-17T15:09:35;18.30;84.90
21551;DHT22;10936;49.836;7.078;2022-12-17T15:12:01;18.30;84.90
21551;DHT22;10936;49.836;7.078;2022-12-17T15:14:27;18.30;84.90
21551;DHT22;10936;49.836;7.078;2022-12-17T15:16:52;18.30;84.80
21551;DHT22;10936;49.836;7.078;2022-12-17T15:19:20;18.30;84.90
21551;DHT22;10936;49.836;7.078;2022-12-17T15:21:45;18.20;84.70
21551;DHT22;10936;49.836;7.078;2022-12-17T15:24:13;18.20;84.80
21551;DHT22;10936;49.836;7.078;2022-12-17T15:26:40;18.20;84.80
21551;DHT22;10936;49.836;7.078;2022-12-17T15:29:05;18.20;84.90
21551;DHT22;10936;49.836;7.078;2022-12-17T15:31:31;18.20;84.90
21551;DHT22;10936;49.836;7.078;2022-12-17T15:33:57;18.20;84.80
21551;DHT22;10936;49.836;7.078;2022-12-17T15:36:22;18.20;84.80
21551;DHT22;10936;49.836;7.078;2022-12-17T15:38:48;18.20;84.90
21551;DHT22;10936;49.836;7.078;2022-12-17T15:41:14;18.10;84.80
21551;DHT22;10936;49.836;7.078;2022-12-17T15:43:58;18.20;84.90
21551;DHT22;10936;49.836;7.078;2022-12-17T15:46:23;18.20;85.00
21551;DHT22;10936;49.836;7.078;2022-12-17T15:48:49;18.20;84.90
21551;DHT22;10936;49.836;7.078;2022-12-17T15:51:15;18.10;84.90
21551;DHT22;10936;49.836;7.078;2022-12-17T15:53:40;18.20;85.00
21551;DHT22;10936;49.836;7.078;2022-12-17T15:56:06;18.20;84.90
21551;DHT22;10936;49.836;7.078;2022-12-17T15:58:32;18.10;84.90
21551;DHT22;10936;49.836;7.078;2022-12-17T16:00:57;18.10;84.90
21551;DHT22;10936;49.836;7.078;2022-12-17T16:03:23;18.10;84.90
21551;DHT22;10936;49.836;7.078;2022-12-17T16:05:48;18.10;84.90
21551;DHT22;10936;49.836;7.078;2022-12-17T16:08:14;18.10;84.90
21551;DHT22;10936;49.836;7.078;2022-12-17T16:10:40;18.10;84.90
21551;DHT22;10936;49.836;7.078;2022-12-17T16:13:06;18.10;85.00
21551;DHT22;10936;49.836;7.078;2022-12-17T16:15:31;18.10;85.00
21551;DHT22;10936;49.836;7.078;2022-12-17T16:17:57;18.10;85.00
21551;DHT22;10936;49.836;7.078;2022-12-17T16:20:23;18.10;85.00
21551;DHT22;10936;49.836;7.078;2022-12-17T16:22:48;18.10;85.00
21551;DHT22;10936;49.836;7.078;2022-12-17T16:25:14;18.10;85.00
21551;DHT22;10936;49.836;7.078;2022-12-17T16:27:39;18.00;85.00
21551;DHT22;10936;49.836;7.078;2022-12-17T16:30:05;18.00;85.00
21551;DHT22;10936;49.836;7.078;2022-12-17T16:32:31;18.10;85.00
21551;DHT22;10936;49.836;7.078;2022-12-17T16:34:58;18.10;85.10
21551;DHT22;10936;49.836;7.078;2022-12-17T16:37:23;18.00;85.10
21551;DHT22;10936;49.836;7.078;2022-12-17T16:39:50;18.10;85.20
21551;DHT22;10936;49.836;7.078;2022-12-17T16:42:16;18.00;85.10
21551;DHT22;10936;49.836;7.078;2022-12-17T16:44:41;18.00;85.20
21551;DHT22;10936;49.836;7.078;2022-12-17T16:47:09;18.00;85.20
21551;DHT22;10936;49.836;7.078;2022-12-17T16:49:35;18.00;85.20
21551;DHT22;10936;49.836;7.078;2022-12-17T16:52:00;18.00;85.20
21551;DHT22;10936;49.836;7.078;2022-12-17T16:54:30;18.00;85.30
21551;DHT22;10936;49.836;7.078;2022-12-17T16:56:56;18.00;85.30
21551;DHT22;10936;49.836;7.078;2022-12-17T16:59:21;18.00;85.30
21551;DHT22;10936;49.836;7.078;2022-12-17T17:01:49;18.00;85.30
21551;DHT22;10936;49.836;7.078;2022-12-17T17:04:16;18.00;85.30
21551;DHT22;10936;49.836;7.078;2022-12-17T17:06:47;18.00;85.40
21551;DHT22;10936;49.836;7.078;2022-12-17T17:09:14;18.00;85.40
21551;DHT22;10936;49.836;7.078;2022-12-17T17:11:40;18.00;85.40
21551;DHT22;10936;49.836;7.078;2022-12-17T17:14:06;18.00;85.50
21551;DHT22;10936;49.836;7.078;2022-12-17T17:16:32;18.00;85.40
21551;DHT22;10936;49.836;7.078;2022-12-17T17:19:01;18.00;85.50
21551;DHT22;10936;49.836;7.078;2022-12-17T17:21:33;18.00;85.50
21551;DHT22;10936;49.836;7.078;2022-12-17T17:24:05;18.00;85.50
21551;DHT22;10936;49.836;7.078;2022-12-17T17:26:32;18.00;85.50
21551;DHT22;10936;49.836;7.078;2022-12-17T17:28:59;18.00;85.50
21551;DHT22;10936;49.836;7.078;2022-12-17T17:31:25;18.00;85.50
21551;DHT22;10936;49.836;7.078;2022-12-17T17:33:51;18.00;85.50
21551;DHT22;10936;49.836;7.078;2022-12-17T17:38:45;18.00;85.50
21551;DHT22;10936;49.836;7.078;2022-12-17T17:41:13;18.00;85.50
21551;DHT22;10936;49.836;7.078;2022-12-17T17:43:39;17.90;85.50
21551;DHT22;10936;49.836;7.078;2022-12-17T17:46:06;17.90;85.50
21551;DHT22;10936;49.836;7.078;2022-12-17T17:48:33;18.00;85.50
21551;DHT22;10936;49.836;7.078;2022-12-17T17:51:17;17.90;85.50
21551;DHT22;10936;49.836;7.078;2022-12-17T17:53:44;17.90;85.60
21551;DHT22;10936;49.836;7.078;2022-12-17T17:56:13;17.90;85.60
21551;DHT22;10936;49.836;7.078;2022-12-17T17:58:50;17.90;85.50
21551;DHT22;10936;49.836;7.078;2022-12-17T18:01:22;17.90;85.60
21551;DHT22;10936;49.836;7.078;2022-12-17T18:03:49;17.90;85.60
21551;DHT22;10936;49.836;7.078;2022-12-17T18:06:15;17.90;85.60
21551;DHT22;10936;49.836;7.078;2022-12-17T18:08:41;17.90;85.60
21551;DHT22;10936;49.836;7.078;2022-12-17T18:11:09;17.90;85.60
21551;DHT22;10936;49.836;7.078;2022-12-17T18:13:35;17.90;85.50
21551;DHT22;10936;49.836;7.078;2022-12-17T18:16:26;17.90;85.50
21551;DHT22;10936;49.836;7.078;2022-12-17T18:19:04;17.90;85.50
21551;DHT22;10936;49.836;7.078;2022-12-17T18:21:31;17.90;85.50
21551;DHT22;10936;49.836;7.078;2022-12-17T18:24:06;17.90;85.50
21551;DHT22;10936;49.836;7.078;2022-12-17T18:26:36;17.90;85.50
21551;DHT22;10936;49.836;7.078;2022-12-17T18:29:23;17.90;85.50
21551;DHT22;10936;49.836;7.078;2022-12-17T18:31:51;17.80;85.50
21551;DHT22;10936;49.836;7.078;2022-12-17T18:34:19;17.90;85.50
21551;DHT22;10936;49.836;7.078;2022-12-17T18:36:46;17.90;85.60
21551;DHT22;10936;49.836;7.078;2022-12-17T18:39:15;17.80;85.50
21551;DHT22;10936;49.836;7.078;2022-12-17T18:41:42;17.90;85.60
21551;DHT22;10936;49.836;7.078;2022-12-17T18:44:27;17.80;85.50
21551;DHT22;10936;49.836;7.078;2022-12-17T18:46:53;17.80;85.50
21551;DHT22;10936;49.836;7.078;2022-12-17T18:49:20;17.80;85.50
21551;DHT22;10936;49.836;7.078;2022-12-17T18:51:48;17.80;85.50
21551;DHT22;10936;49.836;7.078;2022-12-17T18:54:17;17.80;85.50
21551;DHT22;10936;49.836;7.078;2022-12-17T18:56:44;17.80;85.50
21551;DHT22;10936;49.836;7.078;2022-12-17T18:59:17;17.90;85.60
21551;DHT22;10936;49.836;7.078;2022-12-17T19:01:44;17.80;85.60
21551;DHT22;10936;49.836;7.078;2022-12-17T19:04:12;17.80;85.60
21551;DHT22;10936;49.836;7.078;2022-12-17T19:06:39;17.80;85.60
21551;DHT22;10936;49.836;7.078;2022-12-17T19:09:06;17.80;85.60
21551;DHT22;10936;49.836;7.078;2022-12-17T19:11:33;17.80;85.60
21551;DHT22;10936;49.836;7.078;2022-12-17T19:13:59;17.80;85.60
21551;DHT22;10936;49.836;7.078;2022-12-17T19:16:26;17.80;85.60
21551;DHT22;10936;49.836;7.078;2022-12-17T19:18:54;17.80;85.60
21551;DHT22;10936;49.836;7.078;2022-12-17T19:21:20;17.80;85.60
21551;DHT22;10936;49.836;7.078;2022-12-17T19:23:47;17.80;85.60
21551;DHT22;10936;49.836;7.078;2022-12-17T19:26:16;17.80;85.60
21551;DHT22;10936;49.836;7.078;2022-12-17T19:28:44;17.80;85.80
21551;DHT22;10936;49.836;7.078;2022-12-17T19:31:10;17.80;85.70
21551;DHT22;10936;49.836;7.078;2022-12-17T19:33:36;17.80;85.70
21551;DHT22;10936;49.836;7.078;2022-12-17T19:36:11;17.80;85.70
21551;DHT22;10936;49.836;7.078;2022-12-17T19:38:37;17.80;85.80
21551;DHT22;10936;49.836;7.078;2022-12-17T19:41:09;17.80;85.80
21551;DHT22;10936;49.836;7.078;2022-12-17T19:43:35;17.80;85.80
21551;DHT22;10936;49.836;7.078;2022-12-17T19:46:12;17.80;85.80
21551;DHT22;10936;49.836;7.078;2022-12-17T19:48:39;17.80;85.90
21551;DHT22;10936;49.836;7.078;2022-12-17T19:51:07;17.80;85.90
21551;DHT22;10936;49.836;7.078;2022-12-17T19:53:34;17.80;85.90
21551;DHT22;10936;49.836;7.078;2022-12-17T19:56:26;17.80;85.90
21551;DHT22;10936;49.836;7.078;2022-12-17T19:58:58;17.80;86.00
21551;DHT22;10936;49.836;7.078;2022-12-17T20:01:29;17.80;85.90
21551;DHT22;10936;49.836;7.078;2022-12-17T20:03:55;17.80;86.00
21551;DHT22;10936;49.836;7.078;2022-12-17T20:06:24;17.80;86.00
21551;DHT22;10936;49.836;7.078;2022-12-17T20:08:50;17.80;86.00
21551;DHT22;10936;49.836;7.078;2022-12-17T20:11:16;17.80;86.10
21551;DHT22;10936;49.836;7.078;2022-12-17T20:14:09;17.80;86.10
21551;DHT22;10936;49.836;7.078;2022-12-17T20:16:37;17.80;86.10
21551;DHT22;10936;49.836;7.078;2022-12-17T20:19:09;17.80;86.10
21551;DHT22;10936;49.836;7.078;2022-12-17T20:21:35;17.80;86.10
21551;DHT22;10936;49.836;7.078;2022-12-17T20:24:01;17.80;86.10
21551;DHT22;10936;49.836;7.078;2022-12-17T20:26:28;17.80;86.60
21551;DHT22;10936;49.836;7.078;2022-12-17T20:28:54;17.70;86.10
21551;DHT22;10936;49.836;7.078;2022-12-17T20:31:20;17.70;86.10
21551;DHT22;10936;49.836;7.078;2022-12-17T20:33:45;17.80;86.20
21551;DHT22;10936;49.836;7.078;2022-12-17T20:36:14;17.80;86.90
21551;DHT22;10936;49.836;7.078;2022-12-17T20:38:41;17.80;86.10
21551;DHT22;10936;49.836;7.078;2022-12-17T20:41:21;17.80;86.10
21551;DHT22;10936;49.836;7.078;2022-12-17T20:43:48;17.80;86.20
21551;DHT22;10936;49.836;7.078;2022-12-17T20:46:15;17.80;86.10
21551;DHT22;10936;49.836;7.078;2022-12-17T20:48:42;17.70;86.10
21551;DHT22;10936;49.836;7.078;2022-12-17T20:51:10;17.80;86.20
21551;DHT22;10936;49.836;7.078;2022-12-17T20:53:37;17.80;86.20
21551;DHT22;10936;49.836;7.078;2022-12-17T20:56:05;17.80;86.10
21551;DHT22;10936;49.836;7.078;2022-12-17T20:58:31;17.70;86.10
21551;DHT22;10936;49.836;7.078;2022-12-17T21:01:03;17.70;86.10
21551;DHT22;10936;49.836;7.078;2022-12-17T21:03:29;17.70;86.10
21551;DHT22;10936;49.836;7.078;2022-12-17T21:06:02;17.70;86.10
21551;DHT22;10936;49.836;7.078;2022-12-17T21:08:28;17.70;86.90
21551;DHT22;10936;49.836;7.078;2022-12-17T21:10:56;17.70;86.20
21551;DHT22;10936;49.836;7.078;2022-12-17T21:13:22;17.70;86.20
21551;DHT22;10936;49.836;7.078;2022-12-17T21:15:54;17.70;86.20
21551;DHT22;10936;49.836;7.078;2022-12-17T21:18:19;17.70;86.20
21551;DHT22;10936;49.836;7.078;2022-12-17T21:20:59;17.70;86.20
21551;DHT22;10936;49.836;7.078;2022-12-17T21:23:26;17.70;86.20
21551;DHT22;10936;49.836;7.078;2022-12-17T21:25:57;17.70;86.20
21551;DHT22;10936;49.836;7.078;2022-12-17T21:28:23;17.70;86.20
21551;DHT22;10936;49.836;7.078;2022-12-17T21:30:49;17.70;86.20
21551;DHT22;10936;49.836;7.078;2022-12-17T21:33:14;17.70;86.30
21551;DHT22;10936;49.836;7.078;2022-12-17T21:35:40;17.70;86.20
21551;DHT22;10936;49.836;7.078;2022-12-17T21:38:05;17.70;86.20
21551;DHT22;10936;49.836;7.078;2022-12-17T21:40:34;17.70;86.30
21551;DHT22;10936;49.836;7.078;2022-12-17T21:42:59;17.70;86.30
21551;DHT22;10936;49.836;7.078;2022-12-17T21:45:39;17.70;86.50
21551;DHT22;10936;49.836;7.078;2022-12-17T21:48:06;17.70;86.30
21551;DHT22;10936;49.836;7.078;2022-12-17T21:50:32;17.70;86.30
21551;DHT22;10936;49.836;7.078;2022-12-17T21:52:59;17.80;86.50
21551;DHT22;10936;49.836;7.078;2022-12-17T21:55:24;17.80;86.40
21551;DHT22;10936;49.836;7.078;2022-12-17T21:57:50;17.70;86.30
21551;DHT22;10936;49.836;7.078;2022-12-17T22:00:17;17.70;86.30
21551;DHT22;10936;49.836;7.078;2022-12-17T22:02:42;17.70;86.30
21551;DHT22;10936;49.836;7.078;2022-12-17T22:05:08;17.70;86.30
21551;DHT22;10936;49.836;7.078;2022-12-17T22:07:34;17.70;87.10
21551;DHT22;10936;49.836;7.078;2022-12-17T22:09:59;17.70;86.30
21551;DHT22;10936;49.836;7.078;2022-12-17T22:12:25;17.70;86.40
21551;DHT22;10936;49.836;7.078;2022-12-17T22:15:09;17.70;86.50
21551;DHT22;10936;49.836;7.078;2022-12-17T22:17:36;17.70;86.50
21551;DHT22;10936;49.836;7.078;2022-12-17T22:20:03;17.70;86.50
21551;DHT22;10936;49.836;7.078;2022-12-17T22:22:29;17.70;86.50